createdAt,value
2018-08-13T00:00:06.311Z,6.27
2018-08-13T00:02:35.619Z,5.97
2018-08-13T00:05:05.328Z,5.83
2018-08-13T00:07:35.330Z,5.50
2018-08-13T00:10:05.004Z,5.23
2018-08-13T00:12:34.415Z,4.97
2018-08-13T00:15:03.823Z,5.73
2018-08-13T00:17:33.071Z,5.17
2018-08-13T00:20:02.188Z,5.07
2018-08-13T00:22:31.483Z,5.50
2018-08-13T00:25:00.772Z,5.40
2018-08-13T00:27:29.927Z,5.03
2018-08-13T00:29:59.159Z,4.77
2018-08-13T00:32:28.291Z,4.60
2018-08-13T00:34:57.602Z,4.97
2018-08-13T00:37:26.695Z,4.90
2018-08-13T00:39:56.117Z,5.10
2018-08-13T00:42:25.276Z,5.10
2018-08-13T00:44:54.554Z,5.13
2018-08-13T00:47:23.657Z,4.33
2018-08-13T00:49:52.920Z,4.83
2018-08-13T00:52:22.200Z,4.60
2018-08-13T00:54:51.516Z,5.07
2018-08-13T00:57:20.669Z,4.90
2018-08-13T00:59:49.934Z,4.83
2018-08-13T01:02:19.280Z,4.87
2018-08-13T01:04:48.549Z,4.80
2018-08-13T01:07:17.778Z,4.20
2018-08-13T01:09:47.335Z,4.97
2018-08-13T01:12:16.851Z,5.27
2018-08-13T01:14:46.315Z,4.70
2018-08-13T01:17:15.448Z,5.43
2018-08-13T01:19:44.620Z,5.00
2018-08-13T01:22:13.668Z,4.80
2018-08-13T01:24:43.051Z,5.00
2018-08-13T01:27:16.282Z,4.50
2018-08-13T01:29:45.885Z,4.90
2018-08-13T01:32:14.940Z,4.93
2018-08-13T01:34:44.220Z,4.63
2018-08-13T01:37:13.470Z,4.77
2018-08-13T01:39:43.004Z,4.73
2018-08-13T01:42:12.635Z,5.40
2018-08-13T01:44:41.843Z,5.07
2018-08-13T01:47:12.013Z,5.10
2018-08-13T01:49:41.297Z,5.13
2018-08-13T01:52:10.817Z,4.73
2018-08-13T01:54:40.093Z,4.67
2018-08-13T01:57:09.280Z,4.77
2018-08-13T01:59:38.878Z,5.30
2018-08-13T02:02:08.197Z,5.47
2018-08-13T02:04:37.327Z,5.07
2018-08-13T02:07:06.724Z,4.57
2018-08-13T02:09:37.968Z,4.60
2018-08-13T02:12:07.495Z,4.70
2018-08-13T02:14:37.068Z,4.67
2018-08-13T02:17:06.403Z,4.70
2018-08-13T02:19:35.668Z,5.10
2018-08-13T02:22:04.865Z,4.90
2018-08-13T02:24:34.108Z,4.77
2018-08-13T02:27:03.224Z,5.53
2018-08-13T02:29:32.872Z,5.60
2018-08-13T02:32:01.901Z,7.57
2018-08-13T02:34:30.924Z,8.00
2018-08-13T02:37:00.148Z,6.20
2018-08-13T02:39:29.544Z,8.33
2018-08-13T02:41:58.735Z,7.60
2018-08-13T02:44:28.079Z,6.83
2018-08-13T02:46:57.361Z,7.27
2018-08-13T02:49:27.627Z,7.53
2018-08-13T02:51:56.822Z,8.60
2018-08-13T02:54:26.134Z,8.97
2018-08-13T02:56:55.563Z,7.77
2018-08-13T02:59:24.955Z,7.03
2018-08-13T03:01:54.319Z,7.03
2018-08-13T03:04:23.929Z,6.67
2018-08-13T03:06:53.171Z,7.63
2018-08-13T03:09:22.365Z,6.70
2018-08-13T03:11:51.684Z,7.27
2018-08-13T03:14:21.279Z,7.33
2018-08-13T03:16:50.663Z,8.03
2018-08-13T03:19:20.326Z,7.57
2018-08-13T03:21:49.285Z,9.00
2018-08-13T03:24:18.394Z,9.43
2018-08-13T03:26:47.977Z,10.80
2018-08-13T03:29:17.308Z,13.63
2018-08-13T03:31:46.481Z,12.53
2018-08-13T03:34:15.864Z,12.30
2018-08-13T03:36:45.038Z,12.70
2018-08-13T03:39:14.584Z,14.47
2018-08-13T03:41:44.059Z,11.83
2018-08-13T03:44:13.324Z,11.43
2018-08-13T03:46:42.565Z,12.47
2018-08-13T03:49:12.563Z,12.30
2018-08-13T03:51:42.487Z,11.13
2018-08-13T03:54:11.603Z,10.70
2018-08-13T03:56:40.919Z,9.73
2018-08-13T03:59:10.139Z,10.97
2018-08-13T04:01:39.633Z,10.87
2018-08-13T04:04:08.910Z,11.30
2018-08-13T04:06:38.288Z,11.30
2018-08-13T04:09:09.109Z,11.37
2018-08-13T04:11:39.205Z,12.23
2018-08-13T04:14:09.898Z,12.33
2018-08-13T04:16:39.526Z,11.60
2018-08-13T04:19:09.475Z,12.10
2018-08-13T04:21:38.589Z,13.13
2018-08-13T04:24:07.851Z,11.73
2018-08-13T04:26:37.399Z,13.40
2018-08-13T04:29:06.852Z,13.33
2018-08-13T04:31:36.191Z,13.57
2018-08-13T04:34:05.373Z,14.50
2018-08-13T04:36:34.948Z,14.13
2018-08-13T04:39:05.946Z,14.43
2018-08-13T04:41:35.589Z,14.93
2018-08-13T04:44:05.353Z,15.40
2018-08-13T04:46:35.070Z,15.17
2018-08-13T04:49:04.015Z,14.37
2018-08-13T04:51:33.284Z,16.47
2018-08-13T04:54:02.887Z,17.10
2018-08-13T04:56:32.554Z,17.27
2018-08-13T04:59:01.981Z,15.60
2018-08-13T05:01:31.032Z,15.53
2018-08-13T05:04:00.221Z,16.53
2018-08-13T05:06:29.636Z,18.20
2018-08-13T05:08:58.886Z,16.60
2018-08-13T05:11:28.261Z,17.67
2018-08-13T05:13:57.899Z,16.20
2018-08-13T05:16:27.244Z,16.07
2018-08-13T05:18:56.823Z,15.33
2018-08-13T05:21:25.860Z,12.63
2018-08-13T05:23:55.284Z,11.97
2018-08-13T05:26:24.475Z,10.63
2018-08-13T05:28:53.680Z,9.47
2018-08-13T05:31:23.652Z,8.70
2018-08-13T05:33:53.113Z,7.73
2018-08-13T05:36:22.247Z,7.33
2018-08-13T05:38:51.558Z,8.03
2018-08-13T05:41:20.694Z,7.37
2018-08-13T05:43:49.959Z,7.20
2018-08-13T05:46:18.933Z,7.43
2018-08-13T05:48:48.457Z,7.07
2018-08-13T05:51:18.195Z,6.60
2018-08-13T05:53:47.406Z,7.60
2018-08-13T05:56:16.815Z,7.30
2018-08-13T05:58:46.093Z,7.00
2018-08-13T06:01:15.228Z,7.33
2018-08-13T06:03:44.727Z,6.20
2018-08-13T06:06:13.844Z,6.50
2018-08-13T06:08:43.809Z,5.80
2018-08-13T06:11:13.427Z,5.90
2018-08-13T06:13:42.684Z,5.90
2018-08-13T06:16:12.825Z,5.10
2018-08-13T06:18:42.319Z,5.50
2018-08-13T06:21:11.838Z,5.43
2018-08-13T06:23:41.345Z,5.00
2018-08-13T06:26:11.192Z,5.23
2018-08-13T06:28:40.237Z,4.80
2018-08-13T06:31:09.537Z,5.03
2018-08-13T06:33:39.028Z,5.10
2018-08-13T06:36:08.748Z,4.70
2018-08-13T06:38:38.023Z,4.17
2018-08-13T06:41:07.417Z,4.57
2018-08-13T06:43:37.024Z,4.33
2018-08-13T06:46:06.199Z,4.40
2018-08-13T06:48:35.616Z,4.50
2018-08-13T06:51:04.782Z,3.90
2018-08-13T06:53:35.064Z,4.77
2018-08-13T06:56:04.392Z,4.10
2018-08-13T06:58:33.988Z,3.87
2018-08-13T07:01:03.611Z,4.00
2018-08-13T07:03:33.475Z,4.13
2018-08-13T07:06:03.153Z,4.10
2018-08-13T07:08:32.313Z,4.00
2018-08-13T07:11:01.913Z,4.20
2018-08-13T07:13:31.155Z,4.10
2018-08-13T07:16:00.376Z,4.60
2018-08-13T07:18:29.964Z,4.80
2018-08-13T07:20:59.523Z,4.80
2018-08-13T07:23:29.220Z,3.97
2018-08-13T07:25:59.108Z,4.30
2018-08-13T07:28:28.525Z,3.83
2018-08-13T07:30:58.368Z,4.20
2018-08-13T07:33:28.484Z,4.45
2018-08-13T07:35:57.840Z,4.35
2018-08-13T07:38:27.393Z,4.12
2018-08-13T07:40:56.512Z,4.35
2018-08-13T07:43:25.964Z,4.72
2018-08-13T07:45:55.134Z,4.87
2018-08-13T07:48:24.447Z,4.83
2018-08-13T07:50:53.633Z,4.53
2018-08-13T07:53:23.105Z,4.92
2018-08-13T07:55:52.622Z,4.70
2018-08-13T07:58:21.919Z,4.58
2018-08-13T08:00:51.141Z,5.85
2018-08-13T08:03:20.500Z,5.70
2018-08-13T08:05:49.988Z,6.22
2018-08-13T08:08:19.130Z,5.92
2018-08-13T08:10:48.607Z,6.08
2018-08-13T08:13:17.714Z,5.90
2018-08-13T08:15:47.396Z,5.67
2018-08-13T08:18:16.512Z,5.70
2018-08-13T08:20:45.667Z,6.28
2018-08-13T08:23:14.930Z,6.22
2018-08-13T08:25:44.119Z,6.30
2018-08-13T08:28:13.283Z,5.40
2018-08-13T08:30:43.812Z,5.62
2018-08-13T08:33:13.064Z,5.22
2018-08-13T08:35:42.687Z,5.53
2018-08-13T08:38:11.901Z,5.47
2018-08-13T08:40:41.086Z,5.20
2018-08-13T08:43:11.116Z,5.20
2018-08-13T08:45:40.333Z,5.30
2018-08-13T08:48:09.839Z,5.87
2018-08-13T08:50:39.091Z,5.60
2018-08-13T08:53:08.154Z,5.17
2018-08-13T08:55:37.533Z,5.15
2018-08-13T08:58:06.704Z,5.50
2018-08-13T09:00:36.207Z,5.55
2018-08-13T09:03:05.612Z,6.20
2018-08-13T09:05:34.938Z,5.55
2018-08-13T09:08:04.095Z,5.42
2018-08-13T09:10:33.400Z,6.05
2018-08-13T09:13:02.543Z,5.72
2018-08-13T09:15:31.634Z,5.33
2018-08-13T09:18:11.648Z,5.87
2018-08-13T09:20:51.640Z,6.10
2018-08-13T09:23:31.428Z,6.37
2018-08-13T09:26:11.676Z,6.87
2018-08-13T09:28:51.737Z,7.65
2018-08-13T09:31:30.409Z,7.78
2018-08-13T09:35:11.551Z,6.65
2018-08-13T09:37:40.622Z,6.28
2018-08-13T09:40:10.358Z,6.67
2018-08-13T09:42:39.728Z,6.22
2018-08-13T09:45:09.248Z,6.62
2018-08-13T09:47:39.402Z,6.25
2018-08-13T09:50:12.145Z,6.50
2018-08-13T09:52:41.591Z,6.28
2018-08-13T09:55:10.789Z,6.28
2018-08-13T09:57:39.932Z,6.35
2018-08-13T10:00:14.615Z,5.80
2018-08-13T10:02:44.309Z,6.10
2018-08-13T10:05:13.336Z,6.28
2018-08-13T10:07:43.200Z,6.37
2018-08-13T10:10:13.121Z,5.97
2018-08-13T10:12:43.163Z,7.33
2018-08-13T10:15:12.943Z,6.03
2018-08-13T10:17:42.258Z,6.10
2018-08-13T10:20:15.658Z,6.90
2018-08-13T10:22:45.303Z,7.35
2018-08-13T10:25:15.002Z,6.60
2018-08-13T10:27:44.321Z,6.90
2018-08-13T10:30:15.327Z,6.33
2018-08-13T10:32:45.100Z,6.65
2018-08-13T10:35:14.303Z,7.03
2018-08-13T10:37:43.651Z,7.05
2018-08-13T10:40:16.890Z,7.35
2018-08-13T10:42:46.573Z,7.33
2018-08-13T10:45:16.344Z,7.20
2018-08-13T10:47:45.591Z,6.92
2018-08-13T10:50:15.836Z,7.95
2018-08-13T10:52:45.065Z,6.65
2018-08-13T10:55:14.891Z,7.33
2018-08-13T10:57:44.168Z,9.30
2018-08-13T11:00:14.964Z,6.87
2018-08-13T11:02:43.970Z,7.33
2018-08-13T11:05:14.086Z,6.95
2018-08-13T11:07:43.713Z,6.22
2018-08-13T11:10:14.006Z,6.40
2018-08-13T11:12:43.589Z,6.62
2018-08-13T11:15:18.052Z,7.05
2018-08-13T11:17:47.636Z,6.17
2018-08-13T11:20:17.070Z,5.62
2018-08-13T11:22:46.328Z,5.95
2018-08-13T11:25:16.055Z,6.47
2018-08-13T11:27:45.451Z,5.72
2018-08-13T11:30:15.895Z,6.33
2018-08-13T11:32:45.308Z,6.35
2018-08-13T11:35:15.081Z,6.10
2018-08-13T11:37:44.366Z,6.45
2018-08-13T11:40:16.780Z,6.40
2018-08-13T11:42:46.192Z,5.92
2018-08-13T11:45:15.238Z,6.20
2018-08-13T11:47:44.866Z,5.97
2018-08-13T11:50:17.441Z,5.60
2018-08-13T11:52:48.491Z,5.70
2018-08-13T11:55:18.429Z,5.75
2018-08-13T11:57:48.750Z,5.65
2018-08-13T12:00:17.759Z,5.15
2018-08-13T12:02:47.523Z,5.10
2018-08-13T12:05:17.388Z,5.20
2018-08-13T12:07:46.739Z,5.20
2018-08-13T12:10:16.325Z,4.87
2018-08-13T12:12:47.833Z,5.33
2018-08-13T12:15:18.018Z,5.30
2018-08-13T12:17:47.195Z,5.62
2018-08-13T12:20:20.459Z,5.28
2018-08-13T12:22:49.992Z,4.78
2018-08-13T12:25:20.912Z,4.53
2018-08-13T12:27:50.122Z,4.53
2018-08-13T12:32:58.999Z,4.78
2018-08-13T12:35:28.918Z,5.05
2018-08-13T12:37:58.572Z,5.20
2018-08-13T12:40:27.858Z,5.15
2018-08-13T12:42:57.462Z,4.97
2018-08-13T12:45:26.855Z,4.70
2018-08-13T12:47:56.521Z,5.50
2018-08-13T12:50:27.280Z,5.62
2018-08-13T12:52:56.632Z,5.50
2018-08-13T12:55:26.388Z,5.50
2018-08-13T12:57:57.299Z,5.28
2018-08-13T13:00:26.579Z,5.33
2018-08-13T13:02:58.442Z,5.70
2018-08-13T13:05:29.898Z,6.12
2018-08-13T13:07:59.251Z,21.93
2018-08-13T13:10:28.534Z,4.92
2018-08-13T13:12:57.552Z,7.28
2018-08-13T13:15:27.484Z,22.32
2018-08-13T13:17:56.903Z,6.10
2018-08-13T13:20:26.390Z,5.15
2018-08-13T13:22:55.815Z,5.60
2018-08-13T13:25:30.242Z,5.80
2018-08-13T13:28:04.232Z,5.92
2018-08-13T13:30:37.877Z,4.72
2018-08-13T13:33:12.708Z,4.70
2018-08-13T13:35:48.570Z,4.50
2018-08-13T13:38:24.250Z,9.10
2018-08-13T13:40:53.578Z,6.20
2018-08-13T13:43:24.212Z,7.33
2018-08-13T13:45:55.099Z,4.87
2018-08-13T13:48:24.613Z,4.53
2018-08-13T13:50:53.958Z,16.73
2018-08-13T13:53:23.070Z,4.80
2018-08-13T13:55:52.285Z,4.67
2018-08-13T13:58:21.511Z,5.10
2018-08-13T14:00:50.835Z,4.30
2018-08-13T14:03:20.166Z,4.70
2018-08-13T14:05:49.143Z,4.87
2018-08-13T14:08:18.033Z,4.53
2018-08-13T14:10:47.400Z,4.87
2018-08-13T14:13:16.548Z,4.10
2018-08-13T14:15:46.022Z,4.60
2018-08-13T14:18:15.358Z,5.33
2018-08-13T14:20:44.672Z,4.65
2018-08-13T14:23:13.920Z,4.90
2018-08-13T14:25:43.096Z,5.97
2018-08-13T14:28:12.522Z,5.22
2018-08-13T14:30:41.693Z,4.97
2018-08-13T14:33:11.096Z,5.17
2018-08-13T14:35:40.279Z,6.00
2018-08-13T14:38:09.538Z,6.00
2018-08-13T14:40:39.068Z,6.40
2018-08-13T14:43:09.798Z,5.70
2018-08-13T14:45:39.185Z,5.50
2018-08-13T14:48:11.919Z,6.70
2018-08-13T14:50:43.198Z,6.37
2018-08-13T14:53:14.478Z,6.67
2018-08-13T14:55:48.961Z,7.33
2018-08-13T14:58:19.228Z,6.17
2018-08-13T15:00:48.843Z,5.90
2018-08-13T15:03:18.384Z,6.33
2018-08-13T15:05:47.968Z,6.45
2018-08-13T15:08:17.583Z,6.83
2018-08-13T15:10:46.994Z,6.62
2018-08-13T15:13:16.299Z,6.03
2018-08-13T15:15:45.885Z,6.20
2018-08-13T15:18:18.175Z,6.20
2018-08-13T15:20:48.654Z,5.90
2018-08-13T15:23:18.232Z,6.62
2018-08-13T15:25:47.734Z,6.35
2018-08-13T15:28:17.580Z,6.53
2018-08-13T15:30:46.942Z,7.05
2018-08-13T15:33:16.678Z,6.50
2018-08-13T15:35:46.127Z,7.15
2018-08-13T15:38:15.384Z,6.42
2018-08-13T15:40:44.808Z,6.92
2018-08-13T15:43:14.243Z,6.83
2018-08-13T15:45:43.584Z,6.83
2018-08-13T15:48:13.932Z,6.40
2018-08-13T15:50:43.468Z,6.83
2018-08-13T15:53:12.692Z,6.60
2018-08-13T15:55:42.351Z,7.08
2018-08-13T15:58:12.045Z,6.70
2018-08-13T16:00:41.135Z,6.90
2018-08-13T16:03:10.992Z,7.08
2018-08-13T16:05:40.477Z,7.62
2018-08-13T16:08:09.771Z,8.15
2018-08-13T16:10:38.902Z,8.38
2018-08-13T16:13:08.123Z,9.05
2018-08-13T16:15:38.316Z,7.50
2018-08-13T16:18:07.548Z,7.65
2018-08-13T16:20:36.909Z,8.15
2018-08-13T16:23:06.023Z,7.60
2018-08-13T16:25:35.199Z,8.10
2018-08-13T16:28:04.433Z,7.80
2018-08-13T16:30:33.821Z,7.42
2018-08-13T16:33:03.013Z,9.88
2018-08-13T16:35:32.246Z,11.00
2018-08-13T16:38:01.377Z,8.45
2018-08-13T16:40:30.552Z,7.92
2018-08-13T16:42:59.847Z,8.08
2018-08-13T16:45:31.317Z,7.80
2018-08-13T16:48:00.790Z,17.27
2018-08-13T16:50:32.716Z,9.00
2018-08-13T16:53:02.588Z,9.33
2018-08-13T16:55:32.837Z,9.23
2018-08-13T16:58:02.619Z,10.28
2018-08-13T17:00:32.655Z,10.48
2018-08-13T17:03:03.428Z,12.40
2018-08-13T17:05:34.093Z,12.25
2018-08-13T17:08:03.723Z,13.50
2018-08-13T17:10:33.041Z,12.05
2018-08-13T17:13:02.212Z,13.68
2018-08-13T17:15:32.409Z,14.90
2018-08-13T17:18:02.619Z,15.50
2018-08-13T17:20:40.051Z,15.98
2018-08-13T17:23:09.404Z,19.10
2018-08-13T17:25:39.188Z,23.67
2018-08-13T17:28:08.680Z,23.75
2018-08-13T17:30:38.065Z,21.75
2018-08-13T17:33:08.484Z,20.12
2018-08-13T17:35:37.698Z,17.37
2018-08-13T17:38:11.179Z,17.40
2018-08-13T17:40:40.742Z,15.88
2018-08-13T17:43:11.049Z,16.50
2018-08-13T17:45:40.382Z,15.88
2018-08-13T17:48:11.010Z,16.42
2018-08-13T17:50:40.326Z,17.02
2018-08-13T17:53:10.104Z,19.48
2018-08-13T17:55:39.825Z,19.65
2018-08-13T17:58:09.241Z,19.32
2018-08-13T18:00:39.408Z,18.87
2018-08-13T18:03:08.696Z,20.37
2018-08-13T18:05:37.747Z,20.20
2018-08-13T18:08:07.210Z,19.90
2018-08-13T18:10:36.328Z,18.42
2018-08-13T18:13:08.318Z,18.65
2018-08-13T18:15:37.427Z,16.95
2018-08-13T18:18:06.426Z,18.23
2018-08-13T18:20:36.186Z,20.10
2018-08-13T18:23:05.309Z,28.00
2018-08-13T18:25:34.623Z,26.12
2018-08-13T18:28:03.759Z,20.97
2018-08-13T18:30:33.453Z,20.90
2018-08-13T18:33:02.691Z,20.32
2018-08-13T18:35:31.858Z,21.10
2018-08-13T18:38:01.006Z,18.90
2018-08-13T18:40:32.836Z,19.30
2018-08-13T18:43:02.280Z,17.87
2018-08-13T18:45:31.823Z,18.13
2018-08-13T18:48:01.299Z,18.20
2018-08-13T18:50:30.844Z,18.80
2018-08-13T18:53:00.597Z,19.37
2018-08-13T18:55:29.938Z,20.23
2018-08-13T18:57:59.456Z,20.32
2018-08-13T19:00:30.600Z,20.32
2018-08-13T19:03:01.059Z,20.37
2018-08-13T19:05:30.852Z,20.57
2018-08-13T19:08:00.490Z,27.30
2018-08-13T19:10:30.109Z,56.18
2018-08-13T19:12:59.726Z,50.88
2018-08-13T19:15:29.302Z,153.32
2018-08-13T19:17:58.716Z,64.27
2018-08-13T19:20:28.079Z,44.13
2018-08-13T19:22:57.409Z,39.88
2018-08-13T19:25:28.302Z,28.03
2018-08-13T19:27:57.887Z,27.83
2018-08-13T19:30:27.874Z,24.20
2018-08-13T19:32:57.942Z,27.07
2018-08-13T19:35:27.602Z,31.60
2018-08-13T19:37:56.980Z,31.73
2018-08-13T19:40:27.318Z,31.23
2018-08-13T19:42:57.531Z,27.60
2018-08-13T19:45:27.236Z,26.67
2018-08-13T19:47:57.082Z,29.00
2018-08-13T19:50:27.335Z,26.80
2018-08-13T19:52:56.869Z,27.20
2018-08-13T19:55:26.686Z,27.67
2018-08-13T19:57:56.756Z,28.83
2018-08-13T20:00:28.202Z,26.70
2018-08-13T20:02:57.872Z,25.77
2018-08-13T20:05:28.174Z,26.70
2018-08-13T20:07:57.677Z,27.03
2018-08-13T20:10:26.894Z,25.67
2018-08-13T20:12:56.478Z,26.00
2018-08-13T20:15:26.434Z,25.20
2018-08-13T20:17:55.799Z,23.97
2018-08-13T20:20:25.267Z,23.67
2018-08-13T20:22:55.193Z,24.27
2018-08-13T20:25:24.758Z,23.17
2018-08-13T20:27:54.311Z,23.87
2018-08-13T20:30:24.068Z,26.87
2018-08-13T20:32:53.977Z,29.47
2018-08-13T20:35:23.694Z,31.63
2018-08-13T20:37:53.413Z,37.27
2018-08-13T20:40:22.792Z,32.37
2018-08-13T20:42:52.898Z,34.00
2018-08-13T20:45:22.585Z,34.93
2018-08-13T20:47:53.546Z,28.77
2018-08-13T20:50:24.755Z,27.13
2018-08-13T20:52:55.171Z,27.57
2018-08-13T20:55:26.580Z,30.77
2018-08-13T20:57:56.923Z,27.90
2018-08-13T21:00:27.864Z,29.23
2018-08-13T21:02:58.296Z,25.60
2018-08-13T21:05:27.913Z,27.33
2018-08-13T21:07:57.851Z,25.60
2018-08-13T21:10:27.589Z,25.43
2018-08-13T21:12:57.045Z,24.37
2018-08-13T21:15:26.220Z,24.87
2018-08-13T21:17:55.371Z,22.80
2018-08-13T21:20:26.796Z,23.43
2018-08-13T21:22:56.212Z,23.03
2018-08-13T21:25:25.520Z,21.93
2018-08-13T21:27:54.964Z,21.63
2018-08-13T21:30:24.337Z,21.97
2018-08-13T21:32:53.611Z,21.80
2018-08-13T21:35:24.992Z,22.07
2018-08-13T21:37:54.411Z,22.83
2018-08-13T21:40:24.695Z,30.50
2018-08-13T21:42:54.282Z,42.60
2018-08-13T21:45:23.397Z,37.63
2018-08-13T21:47:53.022Z,40.50
2018-08-13T21:50:23.831Z,38.30
2018-08-13T21:52:53.126Z,38.57
2018-08-13T21:55:22.476Z,40.93
2018-08-13T21:57:51.984Z,38.90
2018-08-13T22:00:27.418Z,37.67
2018-08-13T22:02:58.081Z,36.77
2018-08-13T22:05:27.379Z,33.43
2018-08-13T22:07:56.488Z,33.03
2018-08-13T22:10:25.924Z,30.07
2018-08-13T22:12:55.677Z,28.67
2018-08-13T22:15:31.084Z,29.43
2018-08-13T22:18:03.798Z,28.80
2018-08-13T22:20:34.035Z,26.93
2018-08-13T22:23:03.487Z,27.47
2018-08-13T22:25:38.424Z,27.30
2018-08-13T22:28:08.856Z,28.43
2018-08-13T22:30:38.069Z,29.53
2018-08-13T22:33:08.183Z,28.83
2018-08-13T22:35:37.295Z,32.10
2018-08-13T22:38:06.948Z,29.93
2018-08-13T22:40:36.222Z,30.50
2018-08-13T22:43:05.375Z,28.57
2018-08-13T22:45:34.850Z,27.87
2018-08-13T22:48:04.597Z,27.93
2018-08-13T22:50:33.775Z,27.47
2018-08-13T22:53:02.975Z,26.37
2018-08-13T22:55:32.163Z,27.07
2018-08-13T22:58:01.543Z,27.60
2018-08-13T23:00:31.104Z,27.40
2018-08-13T23:03:00.479Z,32.80
2018-08-13T23:05:29.624Z,32.00
2018-08-13T23:07:58.919Z,35.87
2018-08-13T23:10:28.114Z,35.23
2018-08-13T23:12:57.655Z,32.00
2018-08-13T23:15:27.144Z,32.97
2018-08-13T23:17:56.524Z,32.80
2018-08-13T23:20:28.704Z,32.70
2018-08-13T23:22:59.378Z,31.53
2018-08-13T23:25:29.354Z,32.03
2018-08-13T23:27:59.567Z,29.97
2018-08-13T23:30:28.715Z,29.63
2018-08-13T23:32:59.006Z,30.37
2018-08-13T23:35:29.104Z,30.77
2018-08-13T23:37:58.197Z,29.70
2018-08-13T23:40:27.547Z,28.27
2018-08-13T23:42:56.872Z,29.20
2018-08-13T23:45:27.292Z,29.90
2018-08-13T23:47:56.435Z,28.37
2018-08-13T23:50:26.344Z,28.57
2018-08-13T23:52:56.911Z,27.50
2018-08-13T23:55:28.014Z,29.53
2018-08-13T23:57:57.671Z,29.37
